Time;durP1;ratioP1;P1;durP2;ratioP2;P2;SDS_P1;SDS_P2;PMS_P1;PMS_P2;Temp;Humidity;BMP_temperature;BMP_pressure;BME280_temperature;BME280_humidity;BME280_pressure;Samples;Min_cycle;Max_cycle;Signal;HPM_P1;HPM_P2
2023/01/22 00:00:45;;;;;;;7.35;2.58;;;19.20;99.90;;;;;;5035506;28;20277;-76
2023/01/22 00:03:16;;;;;;;4.75;2.70;;;19.10;99.90;;;;;;5035524;28;20190;-76
2023/01/22 00:05:49;;;;;;;5.00;2.50;;;19.10;99.90;;;;;;5035361;28;20281;-76
2023/01/22 00:08:22;;;;;;;6.10;2.55;;;19.10;99.90;;;;;;5035235;28;20200;-76
2023/01/22 00:10:53;;;;;;;3.85;2.10;;;19.20;99.90;;;;;;5034668;28;20652;-76
2023/01/22 00:13:25;;;;;;;5.07;2.85;;;19.30;99.90;;;;;;5035356;28;20634;-77
2023/01/22 00:15:58;;;;;;;4.85;2.70;;;19.30;99.90;;;;;;5035205;28;20217;-77
2023/01/22 00:18:29;;;;;;;4.53;2.30;;;19.30;99.90;;;;;;5035156;28;20222;-77
2023/01/22 00:21:00;;;;;;;4.47;2.05;;;19.40;99.90;;;;;;5035121;28;20273;-77
2023/01/22 00:23:33;;;;;;;4.38;1.80;;;19.40;99.90;;;;;;5034899;28;20194;-76
2023/01/22 00:26:05;;;;;;;7.63;2.05;;;19.50;99.90;;;;;;5035111;28;20194;-76
2023/01/22 00:28:36;;;;;;;5.15;1.98;;;19.50;99.90;;;;;;5035047;28;20192;-76
2023/01/22 00:31:09;;;;;;;5.90;1.98;;;19.50;99.90;;;;;;5034915;28;20646;-76
2023/01/22 00:33:41;;;;;;;4.35;2.13;;;19.50;99.90;;;;;;5034934;28;20190;-76
2023/01/22 00:36:14;;;;;;;3.45;1.98;;;19.50;99.90;;;;;;5034848;28;20195;-76
2023/01/22 00:38:56;;;;;;;4.53;1.90;;;19.50;99.90;;;;;;5034556;28;20218;-77
2023/01/22 00:41:27;;;;;;;6.93;2.20;;;19.50;99.90;;;;;;5034735;28;20197;-76
2023/01/22 00:43:58;;;;;;;4.88;2.10;;;19.60;99.90;;;;;;5034696;28;20281;-76
2023/01/22 00:46:29;;;;;;;3.70;1.90;;;19.60;99.90;;;;;;5034864;28;20642;-76
2023/01/22 00:49:02;;;;;;;2.55;1.60;;;19.50;99.90;;;;;;5034877;28;20199;-76
2023/01/22 00:51:35;;;;;;;3.78;1.63;;;19.60;99.90;;;;;;5034358;28;20233;-77
2023/01/22 00:54:08;;;;;;;4.55;1.60;;;19.70;99.90;;;;;;5034432;28;20222;-76
2023/01/22 00:56:39;;;;;;;4.82;1.35;;;19.70;99.90;;;;;;5034253;28;20571;-76
2023/01/22 00:59:14;;;;;;;5.03;1.60;;;19.70;99.90;;;;;;5034309;28;20218;-76
2023/01/22 01:01:45;;;;;;;5.30;1.52;;;19.70;99.90;;;;;;5034317;28;20641;-77
2023/01/22 01:04:24;;;;;;;2.53;1.45;;;19.70;99.90;;;;;;5034360;28;20208;-76
2023/01/22 01:06:55;;;;;;;4.68;1.40;;;19.80;99.90;;;;;;5034099;28;20194;-77
2023/01/22 01:09:28;;;;;;;3.05;1.20;;;19.70;99.90;;;;;;5034266;28;20206;-76
2023/01/22 01:11:59;;;;;;;3.65;1.45;;;19.70;99.90;;;;;;5034151;28;20205;-76
2023/01/22 01:14:30;;;;;;;1.65;1.20;;;19.80;99.90;;;;;;5034122;28;20217;-76
2023/01/22 01:17:01;;;;;;;3.15;1.52;;;19.80;99.90;;;;;;5034101;28;20300;-76
2023/01/22 01:19:32;;;;;;;3.78;1.30;;;19.90;99.90;;;;;;5033918;28;20214;-76
2023/01/22 01:22:03;;;;;;;3.25;1.17;;;19.90;99.90;;;;;;5033602;28;20197;-76
2023/01/22 01:24:40;;;;;;;3.45;1.20;;;19.90;99.90;;;;;;5033909;28;20194;-76
2023/01/22 01:27:11;;;;;;;5.90;1.40;;;20.00;99.90;;;;;;5033946;28;20285;-77
2023/01/22 01:29:42;;;;;;;1.85;1.17;;;20.00;99.90;;;;;;5033777;28;20193;-76
2023/01/22 01:32:13;;;;;;;5.72;1.30;;;20.00;99.90;;;;;;5034171;28;20293;-76
2023/01/22 01:34:46;;;;;;;4.90;1.70;;;20.00;99.90;;;;;;5033927;28;20190;-77
2023/01/22 01:37:17;;;;;;;6.90;1.40;;;20.00;99.90;;;;;;5033738;28;20194;-76
2023/01/22 01:39:51;;;;;;;3.65;1.45;;;20.00;99.90;;;;;;5033537;28;20222;-76
2023/01/22 01:42:34;;;;;;;4.18;1.33;;;20.00;99.90;;;;;;5033710;28;20190;-76
2023/01/22 01:45:31;;;;;;;5.28;2.03;;;20.00;99.90;;;;;;5033658;28;20277;-76
2023/01/22 01:48:09;;;;;;;5.20;1.48;;;20.00;99.90;;;;;;5033599;28;20196;-76
2023/01/22 01:50:42;;;;;;;3.50;1.60;;;20.00;99.90;;;;;;5033305;28;20237;-76
2023/01/22 01:53:13;;;;;;;2.75;1.20;;;20.00;99.90;;;;;;5033460;28;20197;-76
2023/01/22 01:55:46;;;;;;;4.90;1.50;;;20.10;99.90;;;;;;5033513;28;20194;-76
2023/01/22 01:58:20;;;;;;;3.05;1.30;;;20.10;99.90;;;;;;5033095;28;20238;-76
2023/01/22 02:00:55;;;;;;;4.18;1.33;;;20.10;99.90;;;;;;5033364;28;20563;-76
2023/01/22 02:03:26;;;;;;;3.80;1.50;;;20.10;99.90;;;;;;5033249;28;20191;-76
2023/01/22 02:06:00;;;;;;;3.00;1.38;;;20.20;99.90;;;;;;5033504;28;20281;-76
2023/01/22 02:08:31;;;;;;;3.25;1.38;;;20.20;99.90;;;;;;5033401;28;20200;-76
2023/01/22 02:11:04;;;;;;;4.07;1.52;;;20.30;99.90;;;;;;5033326;28;20619;-76
2023/01/22 02:13:37;;;;;;;4.10;1.60;;;20.30;99.90;;;;;;5033336;28;20194;-76
2023/01/22 02:16:10;;;;;;;4.60;1.70;;;20.30;99.90;;;;;;5033349;28;20193;-76
2023/01/22 02:18:41;;;;;;;3.17;1.55;;;20.30;99.90;;;;;;5033007;28;20221;-76
2023/01/22 02:21:32;;;;;;;2.95;1.48;;;20.40;99.90;;;;;;5033206;28;20195;-76
2023/01/22 02:24:03;;;;;;;3.38;1.30;;;20.40;99.90;;;;;;5033200;28;20204;-76
2023/01/22 02:26:37;;;;;;;3.60;1.40;;;20.40;99.90;;;;;;5033525;28;20206;-76
2023/01/22 02:29:09;;;;;;;3.03;1.30;;;20.40;99.90;;;;;;5033245;28;20645;-76
2023/01/22 02:31:41;;;;;;;5.03;1.55;;;20.40;99.90;;;;;;5033005;28;20542;-75
2023/01/22 02:34:12;;;;;;;4.50;1.42;;;20.40;99.90;;;;;;5034407;28;20274;-76
2023/01/22 02:36:45;;;;;;;5.03;1.48;;;20.40;99.90;;;;;;5037105;28;20190;-76
2023/01/22 02:39:16;;;;;;;3.05;1.30;;;20.40;99.90;;;;;;5037065;28;20217;-76
2023/01/22 02:41:47;;;;;;;5.15;1.38;;;20.40;99.90;;;;;;5037011;28;20198;-76
2023/01/22 02:44:18;;;;;;;4.43;1.63;;;20.40;99.90;;;;;;5036982;28;20201;-76
2023/01/22 02:46:49;;;;;;;2.55;1.13;;;20.40;99.90;;;;;;5036967;28;20195;-76
2023/01/22 02:49:20;;;;;;;5.15;1.40;;;20.40;99.90;;;;;;5036682;28;20197;-76
2023/01/22 02:51:53;;;;;;;3.20;1.30;;;20.40;99.90;;;;;;5036833;28;20194;-76
2023/01/22 02:54:24;;;;;;;3.83;1.58;;;20.40;99.90;;;;;;5036715;28;20218;-76
2023/01/22 02:56:55;;;;;;;3.25;1.58;;;20.40;99.90;;;;;;5036862;28;20281;-76
2023/01/22 02:59:26;;;;;;;3.60;1.70;;;20.40;99.90;;;;;;5036599;28;20218;-76
2023/01/22 03:01:57;;;;;;;2.85;1.42;;;20.40;99.90;;;;;;5036497;28;20191;-75
2023/01/22 03:04:28;;;;;;;4.20;1.80;;;20.30;99.90;;;;;;5036540;28;20281;-75
2023/01/22 03:07:06;;;;;;;7.30;1.50;;;20.30;99.90;;;;;;5036530;28;20201;-76
2023/01/22 03:09:37;;;;;;;3.95;1.40;;;20.20;99.90;;;;;;5036488;28;20198;-76
2023/01/22 03:12:08;;;;;;;2.38;1.00;;;20.10;99.90;;;;;;5036455;28;20196;-76
2023/01/22 03:23:02;;;;;;;4.75;1.58;;;20.00;99.90;;;;;;5036444;28;20189;-75
2023/01/22 03:25:33;;;;;;;2.95;1.10;;;19.90;99.90;;;;;;5036460;28;20293;-75
2023/01/22 03:28:18;;;;;;;4.40;1.00;;;19.80;99.90;;;;;;5036063;28;20559;-76
2023/01/22 03:30:49;;;;;;;3.25;0.98;;;19.50;99.90;;;;;;5035881;28;20225;-76
2023/01/22 03:33:20;;;;;;;3.78;1.00;;;19.50;99.90;;;;;;5036192;28;20285;-76
2023/01/22 03:35:50;;;;;;;3.42;1.10;;;19.60;99.90;;;;;;5035916;28;20290;-76
2023/01/22 03:38:23;;;;;;;4.28;1.27;;;19.60;99.90;;;;;;5035939;28;20190;-76
2023/01/22 03:40:54;;;;;;;3.20;0.90;;;19.70;99.90;;;;;;5035943;28;20198;-75
2023/01/22 03:43:25;;;;;;;3.22;0.93;;;19.70;99.90;;;;;;5035844;28;20197;-76
2023/01/22 03:46:01;;;;;;;3.72;1.40;;;19.60;99.90;;;;;;5034229;28;20260;-76
2023/01/22 03:48:40;;;;;;;2.08;1.00;;;19.70;99.90;;;;;;5035796;28;20646;-76
2023/01/22 03:51:13;;;;;;;3.80;1.17;;;19.70;99.90;;;;;;5035718;28;20190;-76
2023/01/22 03:53:47;;;;;;;3.15;0.90;;;19.80;99.90;;;;;;5035543;28;20228;-76
2023/01/22 03:56:19;;;;;;;2.28;1.00;;;19.80;99.90;;;;;;5035616;28;20196;-76
2023/01/22 03:58:50;;;;;;;4.00;1.00;;;19.80;99.90;;;;;;5035271;28;20229;-76
2023/01/22 04:01:22;;;;;;;3.42;0.82;;;19.80;99.90;;;;;;5035287;28;20665;-76
2023/01/22 04:03:53;;;;;;;4.30;0.93;;;19.80;99.90;;;;;;5035513;28;20244;-76
2023/01/22 04:06:25;;;;;;;4.13;1.08;;;19.80;99.90;;;;;;5035793;28;20273;-76
2023/01/22 04:09:00;;;;;;;1.75;0.70;;;19.80;99.90;;;;;;5035361;28;20194;-76
2023/01/22 04:11:31;;;;;;;3.45;0.70;;;19.80;99.90;;;;;;5035324;28;20196;-76
2023/01/22 04:14:02;;;;;;;3.67;0.90;;;19.80;99.90;;;;;;5035125;28;20192;-76
2023/01/22 04:16:33;;;;;;;2.92;0.82;;;19.80;99.90;;;;;;5035335;28;20195;-76
2023/01/22 04:19:04;;;;;;;2.83;1.08;;;19.90;99.90;;;;;;5035165;28;20220;-76
2023/01/22 04:21:35;;;;;;;3.05;1.02;;;19.90;99.90;;;;;;5035171;28;20194;-76
2023/01/22 04:24:08;;;;;;;4.47;0.88;;;20.00;99.90;;;;;;5035098;28;20220;-76
2023/01/22 04:26:39;;;;;;;2.38;1.00;;;20.10;99.90;;;;;;5035376;28;20201;-76
2023/01/22 04:29:10;;;;;;;3.78;0.90;;;20.10;99.90;;;;;;5035152;28;20205;-76
2023/01/22 04:31:44;;;;;;;2.25;0.82;;;20.20;99.90;;;;;;5034958;28;20277;-76
2023/01/22 04:34:15;;;;;;;3.55;0.93;;;20.20;99.90;;;;;;5034960;28;20187;-76
2023/01/22 04:36:46;;;;;;;5.90;0.98;;;20.20;99.90;;;;;;5034867;28;20277;-76
2023/01/22 04:39:19;;;;;;;5.18;1.10;;;20.20;99.90;;;;;;5034739;28;20228;-76
2023/01/22 04:41:50;;;;;;;3.42;1.02;;;20.30;99.90;;;;;;5034825;28;20187;-76
2023/01/22 04:44:21;;;;;;;3.17;1.10;;;20.30;99.90;;;;;;5034574;28;20191;-76
2023/01/22 04:46:52;;;;;;;4.50;0.80;;;20.30;99.90;;;;;;5034653;28;20198;-76
2023/01/22 04:49:23;;;;;;;2.42;0.77;;;20.30;99.90;;;;;;5034581;28;20577;-76
2023/01/22 04:52:04;;;;;;;3.83;0.85;;;20.40;99.90;;;;;;5034516;28;20198;-76
2023/01/22 04:54:37;;;;;;;6.40;1.50;;;20.40;99.90;;;;;;5034420;28;20221;-76
2023/01/22 04:57:08;;;;;;;5.93;1.05;;;20.40;99.90;;;;;;5033933;28;20244;-76
2023/01/22 04:59:39;;;;;;;2.90;0.80;;;20.50;99.90;;;;;;5034151;28;20220;-76
2023/01/22 05:02:10;;;;;;;3.70;0.70;;;20.50;99.90;;;;;;5034373;28;20664;-76
2023/01/22 05:04:41;;;;;;;5.72;0.80;;;20.50;99.90;;;;;;5034314;28;20191;-76
2023/01/22 05:07:12;;;;;;;2.42;0.80;;;20.50;99.90;;;;;;5034623;28;20194;-76
2023/01/22 05:09:45;;;;;;;3.88;0.95;;;20.60;99.90;;;;;;5034179;28;20553;-76
2023/01/22 05:12:25;;;;;;;3.30;0.90;;;20.60;99.90;;;;;;5033973;28;20194;-76
2023/01/22 05:14:56;;;;;;;5.88;1.33;;;20.60;99.90;;;;;;5034151;28;20281;-76
2023/01/22 05:17:27;;;;;;;3.83;0.95;;;20.60;99.90;;;;;;5034158;28;20186;-76
2023/01/22 05:19:58;;;;;;;4.60;1.02;;;20.70;99.90;;;;;;5033960;28;20312;-76
2023/01/22 05:22:29;;;;;;;4.25;1.15;;;20.70;99.90;;;;;;5034024;28;20653;-76
2023/01/22 05:25:02;;;;;;;5.88;1.10;;;20.70;99.90;;;;;;5033966;28;20186;-76
2023/01/22 05:27:33;;;;;;;3.38;0.90;;;20.70;99.90;;;;;;5033745;28;20197;-76
2023/01/22 05:30:04;;;;;;;3.58;0.90;;;20.70;99.90;;;;;;5033808;28;20200;-76
2023/01/22 05:32:43;;;;;;;4.13;0.85;;;20.80;99.90;;;;;;5033811;28;20186;-76
2023/01/22 05:35:17;;;;;;;5.28;1.08;;;20.70;99.90;;;;;;5033775;28;20194;-76
2023/01/22 05:37:51;;;;;;;5.60;1.00;;;20.80;99.90;;;;;;5033868;28;20190;-76
2023/01/22 05:40:24;;;;;;;1.90;0.75;;;20.70;99.90;;;;;;5033613;28;20305;-76
2023/01/22 05:42:55;;;;;;;4.00;1.00;;;20.70;99.90;;;;;;5033448;28;20213;-76
2023/01/22 05:45:26;;;;;;;3.38;0.90;;;20.80;99.90;;;;;;5033630;28;20240;-76
2023/01/22 05:47:57;;;;;;;2.70;0.90;;;20.80;99.90;;;;;;5033850;28;20285;-77
2023/01/22 05:50:28;;;;;;;3.35;0.93;;;20.70;99.90;;;;;;5033578;28;20190;-76
2023/01/22 05:52:59;;;;;;;4.57;0.80;;;20.70;99.90;;;;;;5033556;28;20197;-77
2023/01/22 05:55:40;;;;;;;1.50;0.60;;;20.70;99.90;;;;;;5033696;28;20195;-76
2023/01/22 05:58:11;;;;;;;2.47;0.60;;;20.70;99.90;;;;;;5033248;28;20317;-77
2023/01/22 06:00:42;;;;;;;2.05;0.70;;;20.60;99.90;;;;;;5033319;28;20576;-76
2023/01/22 06:03:13;;;;;;;4.50;0.90;;;20.50;99.90;;;;;;5033501;28;20194;-77
2023/01/22 06:05:44;;;;;;;5.25;1.00;;;20.50;99.90;;;;;;5033385;28;20191;-76
2023/01/22 06:08:15;;;;;;;5.22;1.00;;;20.40;99.90;;;;;;5032852;28;20664;-76
2023/01/22 06:10:48;;;;;;;3.92;0.80;;;20.40;99.90;;;;;;5032917;28;20190;-76
2023/01/22 06:13:19;;;;;;;2.38;0.80;;;20.30;99.90;;;;;;5033560;28;20190;-76
2023/01/22 06:16:00;;;;;;;4.55;0.70;;;20.30;99.90;;;;;;5033376;28;20201;-76
2023/01/22 06:18:31;;;;;;;3.17;0.98;;;20.30;99.90;;;;;;5033340;28;20641;-76
2023/01/22 06:21:03;;;;;;;3.47;1.10;;;20.30;99.90;;;;;;5033032;28;20217;-76
2023/01/22 06:23:34;;;;;;;3.25;1.20;;;20.30;99.90;;;;;;5033397;28;20194;-77
2023/01/22 06:26:08;;;;;;;3.80;0.93;;;20.30;99.90;;;;;;5033125;28;20213;-76
2023/01/22 06:28:38;;;;;;;4.57;1.10;;;20.30;99.90;;;;;;5033149;28;20282;-77
2023/01/22 06:31:09;;;;;;;3.60;0.90;;;20.30;99.90;;;;;;5033166;28;20194;-76
2023/01/22 06:33:41;;;;;;;5.72;1.10;;;20.30;99.90;;;;;;5033138;28;20193;-76
2023/01/22 06:36:12;;;;;;;2.58;1.08;;;20.40;99.90;;;;;;5033241;28;20190;-76
2023/01/22 06:38:46;;;;;;;3.30;1.00;;;20.40;99.90;;;;;;5033136;28;20197;-77
2023/01/22 06:41:19;;;;;;;2.33;1.00;;;20.40;99.90;;;;;;5032676;28;20229;-76
2023/01/22 06:43:50;;;;;;;2.72;1.02;;;20.40;99.90;;;;;;5032998;28;20279;-77
2023/01/22 06:46:21;;;;;;;3.63;1.05;;;20.30;99.90;;;;;;5033038;28;20639;-76
2023/01/22 06:48:52;;;;;;;3.22;1.00;;;20.40;99.90;;;;;;5033064;28;20200;-76
2023/01/22 06:51:23;;;;;;;2.90;1.33;;;20.40;99.90;;;;;;5032962;28;20194;-76
2023/01/22 06:53:55;;;;;;;3.65;1.20;;;20.40;99.90;;;;;;5033060;28;20317;-77
2023/01/22 06:56:28;;;;;;;3.47;0.95;;;20.40;99.90;;;;;;5032919;28;20190;-76
2023/01/22 06:59:05;;;;;;;3.63;0.88;;;20.40;99.90;;;;;;5032781;28;20234;-76
2023/01/22 07:01:36;;;;;;;2.22;0.88;;;20.40;99.90;;;;;;5032770;28;20239;-76
2023/01/22 07:04:07;;;;;;;2.92;1.10;;;20.50;99.90;;;;;;5032835;28;20198;-78
2023/01/22 07:06:38;;;;;;;4.13;1.05;;;20.50;99.90;;;;;;5032871;28;20199;-76
2023/01/22 07:09:09;;;;;;;4.38;1.30;;;20.50;99.90;;;;;;5032543;28;20194;-76
2023/01/22 07:11:42;;;;;;;5.15;1.17;;;20.50;99.90;;;;;;5033029;28;20191;-76
2023/01/22 07:14:13;;;;;;;4.40;1.23;;;20.50;99.90;;;;;;5032689;28;20190;-77
2023/01/22 07:16:44;;;;;;;4.40;1.02;;;20.50;99.90;;;;;;5032731;28;20194;-77
2023/01/22 07:19:21;;;;;;;3.70;1.30;;;20.50;99.90;;;;;;5032640;28;20197;-77
2023/01/22 07:21:52;;;;;;;3.67;1.10;;;20.50;99.90;;;;;;5036094;28;20229;-77
2023/01/22 07:24:23;;;;;;;4.82;0.98;;;20.50;99.90;;;;;;5036059;28;20197;-79
2023/01/22 07:26:55;;;;;;;2.80;0.90;;;20.40;99.90;;;;;;5036290;28;20201;-78
2023/01/22 07:29:26;;;;;;;3.00;1.13;;;20.40;99.90;;;;;;5036111;28;20197;-77
2023/01/22 07:31:57;;;;;;;4.80;1.20;;;20.40;99.90;;;;;;5036132;28;20201;-79
2023/01/22 07:34:28;;;;;;;3.80;1.00;;;20.40;99.90;;;;;;5036034;28;20196;-77
2023/01/22 07:37:00;;;;;;;5.15;1.38;;;20.40;99.90;;;;;;5035815;28;20208;-77
2023/01/22 07:39:34;;;;;;;4.70;1.15;;;20.40;99.90;;;;;;5035966;28;20273;-77
2023/01/22 07:42:07;;;;;;;4.07;1.20;;;20.40;99.90;;;;;;5035831;28;20230;-78
2023/01/22 07:44:39;;;;;;;2.40;1.02;;;20.40;99.90;;;;;;5035880;28;20564;-78
2023/01/22 07:47:11;;;;;;;4.38;1.23;;;20.40;99.90;;;;;;5035817;28;20190;-77
2023/01/22 07:49:42;;;;;;;2.65;0.80;;;20.40;99.90;;;;;;5035861;28;20194;-78
2023/01/22 07:52:13;;;;;;;4.28;1.38;;;20.40;99.90;;;;;;5035516;28;20214;-78
2023/01/22 07:54:44;;;;;;;3.50;0.98;;;20.30;99.90;;;;;;5035625;28;20228;-77
2023/01/22 07:57:17;;;;;;;4.55;1.27;;;20.20;99.90;;;;;;5035328;28;20238;-77
2023/01/22 07:59:57;;;;;;;4.18;1.00;;;20.20;99.90;;;;;;5035484;28;20582;-77
2023/01/22 08:02:28;;;;;;;3.35;0.90;;;20.10;99.90;;;;;;5035521;28;20285;-77
2023/01/22 08:04:59;;;;;;;4.82;0.80;;;20.10;99.90;;;;;;5035578;28;20197;-79
2023/01/22 08:07:29;;;;;;;2.85;0.73;;;20.00;99.90;;;;;;5035231;28;20609;-78
2023/01/22 08:10:00;;;;;;;1.48;0.80;;;19.90;99.90;;;;;;5035319;28;20277;-78
2023/01/22 08:12:35;;;;;;;3.47;1.00;;;19.80;99.90;;;;;;5035382;28;20261;-78
2023/01/22 08:15:06;;;;;;;2.25;0.90;;;19.70;99.90;;;;;;5035275;28;20599;-78
2023/01/22 08:17:37;;;;;;;2.88;0.73;;;19.70;99.90;;;;;;5035288;28;20217;-78
2023/01/22 08:20:15;;;;;;;2.35;0.73;;;19.60;99.90;;;;;;5035109;28;20193;-78
2023/01/22 08:22:46;;;;;;;2.47;0.70;;;19.50;99.90;;;;;;5034987;28;20197;-78
2023/01/22 08:25:17;;;;;;;2.67;0.70;;;19.50;99.90;;;;;;5035237;28;20201;-78
2023/01/22 08:27:50;;;;;;;2.55;0.70;;;19.40;99.90;;;;;;5035088;28;20277;-78
2023/01/22 08:30:21;;;;;;;1.95;0.60;;;19.40;99.90;;;;;;5035053;28;20289;-78
2023/01/22 08:32:52;;;;;;;3.78;0.60;;;19.30;99.90;;;;;;5034252;28;20203;-78
2023/01/22 08:35:23;;;;;;;3.28;1.08;;;19.30;99.90;;;;;;5034782;28;20715;-78
2023/01/22 08:37:54;;;;;;;2.25;0.90;;;19.30;99.90;;;;;;5034913;28;20191;-78
2023/01/22 08:40:28;;;;;;;3.88;0.90;;;19.20;99.90;;;;;;5034624;28;20214;-79
2023/01/22 08:43:01;;;;;;;3.33;0.95;;;19.20;99.90;;;;;;5034744;28;20226;-79
2023/01/22 08:45:32;;;;;;;3.00;1.08;;;19.20;99.90;;;;;;5034743;28;20273;-79
2023/01/22 08:48:03;;;;;;;2.63;1.15;;;19.20;99.90;;;;;;5034719;28;20757;-79
2023/01/22 08:50:34;;;;;;;4.45;0.95;;;19.20;99.90;;;;;;5034471;28;20297;-79
2023/01/22 08:53:05;;;;;;;3.20;0.95;;;19.20;99.90;;;;;;5034617;28;20234;-78
2023/01/22 08:55:35;;;;;;;4.45;1.05;;;19.10;99.90;;;;;;5034828;28;20216;-77
2023/01/22 08:58:09;;;;;;;3.03;1.10;;;19.10;99.90;;;;;;5034328;28;20226;-77
2023/01/22 09:00:39;;;;;;;4.95;0.93;;;19.00;99.90;;;;;;5034266;28;20222;-77
2023/01/22 09:03:16;;;;;;;4.43;1.00;;;19.00;99.90;;;;;;5034450;28;20187;-77
2023/01/22 09:05:46;;;;;;;2.08;0.80;;;18.90;99.90;;;;;;5034208;28;20265;-77
2023/01/22 09:08:18;;;;;;;3.20;1.02;;;18.90;99.90;;;;;;5034305;28;20281;-77
2023/01/22 09:10:49;;;;;;;3.90;1.00;;;18.90;99.90;;;;;;5034182;28;20198;-77
2023/01/22 09:13:22;;;;;;;4.32;0.90;;;18.90;99.90;;;;;;5034173;28;20217;-77
2023/01/22 09:15:53;;;;;;;3.90;1.02;;;18.90;99.90;;;;;;5034167;28;20729;-77
2023/01/22 09:18:23;;;;;;;3.58;0.98;;;18.90;99.90;;;;;;5034435;28;20372;-77
2023/01/22 09:20:55;;;;;;;2.55;1.10;;;19.00;99.90;;;;;;5033993;28;20218;-77
2023/01/22 09:23:28;;;;;;;3.70;1.15;;;19.00;99.90;;;;;;5034061;28;20313;-77
2023/01/22 09:25:59;;;;;;;5.80;1.10;;;19.00;99.90;;;;;;5033957;28;20646;-77
2023/01/22 09:28:32;;;;;;;4.50;1.02;;;19.10;99.90;;;;;;5033879;28;20554;-77
2023/01/22 09:31:03;;;;;;;3.50;1.10;;;19.00;99.90;;;;;;5033856;28;20194;-77
2023/01/22 09:33:34;;;;;;;3.58;1.02;;;19.00;99.90;;;;;;5033700;28;20190;-77
2023/01/22 09:36:13;;;;;;;3.35;1.02;;;19.00;99.90;;;;;;5033861;28;20733;-76
2023/01/22 09:38:44;;;;;;;5.40;1.23;;;19.00;99.90;;;;;;5033839;28;20749;-78
2023/01/22 09:41:21;;;;;;;3.53;0.80;;;19.00;99.90;;;;;;5033675;28;20696;-77
2023/01/22 09:43:59;;;;;;;3.67;0.93;;;18.80;99.90;;;;;;5033650;28;20202;-77
2023/01/22 09:46:32;;;;;;;3.72;0.80;;;18.80;99.90;;;;;;5033653;28;20221;-78
2023/01/22 09:49:14;;;;;;;1.52;0.60;;;18.80;99.90;;;;;;5033473;28;20638;-76
2023/01/22 09:51:48;;;;;;;2.03;0.80;;;18.70;99.90;;;;;;5033595;28;20221;-78
2023/01/22 09:54:19;;;;;;;2.60;0.70;;;18.70;99.90;;;;;;5033402;28;20226;-78
2023/01/22 09:56:53;;;;;;;2.45;0.80;;;18.60;99.90;;;;;;5033327;28;20277;-77
2023/01/22 09:59:33;;;;;;;2.13;0.80;;;18.50;99.90;;;;;;5033497;28;20579;-78
2023/01/22 10:02:25;;;;;;;3.10;0.63;;;18.50;99.90;;;;;;5033251;28;20309;-77
2023/01/22 10:04:59;;;;;;;1.92;0.80;;;18.50;99.90;;;;;;5033498;28;20198;-78
2023/01/22 10:07:34;;;;;;;1.10;0.60;;;18.50;99.90;;;;;;5033414;28;20190;-77
2023/01/22 10:10:18;;;;;;;1.30;0.50;;;18.40;99.90;;;;;;5033361;28;20194;-77
2023/01/22 10:12:55;;;;;;;3.05;0.85;;;18.40;99.90;;;;;;5033369;28;20198;-77
2023/01/22 10:15:28;;;;;;;2.83;0.80;;;18.40;99.90;;;;;;5033315;28;20189;-77
2023/01/22 10:18:00;;;;;;;2.28;0.65;;;18.30;99.90;;;;;;5033134;28;20190;-77
2023/01/22 10:20:31;;;;;;;0.98;0.52;;;18.30;99.90;;;;;;5033184;28;20190;-77
2023/01/22 10:23:15;;;;;;;1.48;0.57;;;18.40;99.90;;;;;;5033614;28;20252;-77
2023/01/22 10:25:46;;;;;;;1.48;0.60;;;18.40;99.90;;;;;;5033242;28;20662;-77
2023/01/22 10:28:17;;;;;;;2.33;0.70;;;18.40;99.90;;;;;;5033206;28;20205;-77
2023/01/22 10:30:56;;;;;;;3.30;0.65;;;18.40;99.90;;;;;;5033208;28;20201;-77
2023/01/22 10:33:44;;;;;;;3.60;0.85;;;18.40;99.90;;;;;;5033155;28;20248;-77
2023/01/22 10:36:17;;;;;;;2.50;0.65;;;18.40;99.90;;;;;;5033147;28;20268;-77
2023/01/22 10:38:48;;;;;;;3.05;0.80;;;18.40;99.90;;;;;;5033075;28;20194;-77
2023/01/22 10:41:22;;;;;;;2.22;0.90;;;18.40;99.90;;;;;;5033045;28;20378;-77
2023/01/22 10:43:53;;;;;;;1.80;0.70;;;18.50;99.90;;;;;;5033020;28;20193;-77
2023/01/22 10:46:27;;;;;;;2.88;0.90;;;18.50;99.90;;;;;;5032846;28;20194;-78
2023/01/22 10:49:04;;;;;;;1.42;0.65;;;18.50;99.90;;;;;;5032905;28;20201;-77
2023/01/22 10:51:38;;;;;;;3.58;1.00;;;18.50;99.90;;;;;;5033064;28;20556;-77
2023/01/22 10:54:29;;;;;;;3.47;1.02;;;18.50;99.90;;;;;;5032865;28;20223;-78
2023/01/22 10:57:08;;;;;;;1.63;0.90;;;18.50;99.90;;;;;;5036629;28;20277;-78
2023/01/22 10:59:40;;;;;;;3.63;1.10;;;18.50;99.90;;;;;;5036719;28;20642;-77
2023/01/22 11:02:19;;;;;;;3.60;1.13;;;18.50;99.90;;;;;;5036410;28;20218;-77
2023/01/22 11:04:50;;;;;;;2.88;0.80;;;18.50;99.90;;;;;;5036939;28;20292;-77
2023/01/22 11:07:24;;;;;;;1.83;0.80;;;18.60;99.90;;;;;;5036571;28;20197;-77
2023/01/22 11:10:01;;;;;;;2.70;1.10;;;18.60;99.90;;;;;;5036591;28;20198;-77
2023/01/22 11:12:34;;;;;;;2.67;0.90;;;18.60;99.90;;;;;;5036508;28;20194;-77
2023/01/22 11:15:19;;;;;;;2.28;0.70;;;18.60;99.90;;;;;;5036263;28;20194;-77
2023/01/22 11:17:54;;;;;;;3.38;0.88;;;18.60;99.90;;;;;;5036448;28;20662;-77
2023/01/22 11:20:28;;;;;;;2.67;0.80;;;18.60;99.90;;;;;;5036269;28;20193;-78
2023/01/22 11:23:15;;;;;;;2.83;0.80;;;18.60;99.90;;;;;;5036267;28;20228;-77
2023/01/22 11:25:52;;;;;;;4.65;1.40;;;18.60;99.90;;;;;;5036273;28;20194;-77
2023/01/22 11:28:40;;;;;;;2.17;0.70;;;18.60;99.90;;;;;;5036217;28;20564;-78
2023/01/22 11:31:44;;;;;;;3.80;0.80;;;18.60;99.90;;;;;;5036026;28;20196;-77
2023/01/22 11:34:53;;;;;;;5.70;0.90;;;18.60;99.90;;;;;;5021577;28;20206;-77
2023/01/22 11:37:45;;;;;;;4.90;1.13;;;18.60;99.90;;;;;;4975125;28;20203;-78
2023/01/22 11:40:27;;;;;;;3.85;0.80;;;18.60;99.90;;;;;;5036021;28;20187;-77
2023/01/22 11:43:19;;;;;;;2.72;0.65;;;18.60;99.90;;;;;;5035941;28;20226;-77
2023/01/22 11:46:14;;;;;;;1.02;0.70;;;18.60;99.90;;;;;;5035723;28;20204;-77
2023/01/22 11:48:56;;;;;;;1.77;0.63;;;18.60;99.90;;;;;;5035838;28;20286;-78
2023/01/22 11:51:34;;;;;;;0.73;0.60;;;18.60;99.90;;;;;;5036188;28;20216;-77
2023/01/22 11:54:21;;;;;;;3.92;0.77;;;18.60;99.90;;;;;;5035681;28;20222;-77
2023/01/22 11:57:24;;;;;;;3.28;0.80;;;18.60;99.90;;;;;;5035451;28;20195;-78
2023/01/22 12:00:22;;;;;;;3.40;0.77;;;18.60;99.90;;;;;;4974641;28;20204;-78
2023/01/22 12:03:15;;;;;;;2.30;0.90;;;18.60;99.90;;;;;;5035529;28;20230;-78
2023/01/22 12:05:50;;;;;;;1.45;0.70;;;18.60;99.90;;;;;;5035386;28;20202;-77
2023/01/22 12:08:42;;;;;;;1.80;0.55;;;18.50;99.90;;;;;;5034729;28;20194;-77
2023/01/22 12:11:29;;;;;;;1.90;0.70;;;18.60;99.90;;;;;;5035489;28;20304;-77
2023/01/22 12:14:30;;;;;;;1.30;0.73;;;18.60;99.90;;;;;;5035310;28;20190;-78
2023/01/22 12:17:07;;;;;;;1.85;0.50;;;18.50;99.90;;;;;;5024565;28;20208;-78
2023/01/22 12:20:01;;;;;;;1.95;0.50;;;18.50;99.90;;;;;;5035204;28;20195;-77
2023/01/22 12:22:39;;;;;;;2.08;0.77;;;18.50;99.90;;;;;;5035173;28;20308;-78
2023/01/22 12:25:24;;;;;;;2.08;0.80;;;18.50;99.90;;;;;;5035199;28;20194;-77
2023/01/22 12:28:00;;;;;;;3.08;0.82;;;18.60;99.90;;;;;;5034907;28;20252;-77
2023/01/22 12:30:39;;;;;;;1.70;0.68;;;18.50;99.90;;;;;;5035066;28;20201;-77
2023/01/22 12:33:15;;;;;;;0.50;0.50;;;18.50;99.90;;;;;;5035107;28;20680;-78
2023/01/22 12:35:46;;;;;;;3.42;0.50;;;18.60;99.90;;;;;;5035026;28;20190;-78
2023/01/22 12:38:29;;;;;;;1.00;0.60;;;18.60;99.90;;;;;;5034896;28;20194;-77
2023/01/22 12:41:28;;;;;;;3.63;0.70;;;18.50;99.90;;;;;;5034887;28;20216;-77
2023/01/22 12:44:03;;;;;;;1.42;0.57;;;18.50;99.90;;;;;;5025633;28;20206;-78
2023/01/22 12:46:45;;;;;;;1.00;0.50;;;18.40;99.90;;;;;;5034813;28;20186;-79
2023/01/22 12:49:19;;;;;;;3.45;0.50;;;18.40;99.90;;;;;;5034603;28;20277;-78
2023/01/22 12:51:52;;;;;;;4.38;0.88;;;18.40;99.90;;;;;;5034667;28;20281;-78
2023/01/22 12:54:29;;;;;;;3.33;0.60;;;18.40;99.90;;;;;;5034575;28;20229;-77
2023/01/22 12:57:24;;;;;;;2.08;0.60;;;18.40;99.90;;;;;;5034458;28;20194;-78
2023/01/22 12:59:57;;;;;;;4.20;0.60;;;18.30;99.90;;;;;;5034459;28;20190;-78
2023/01/22 13:02:38;;;;;;;2.05;0.50;;;18.30;99.90;;;;;;5034462;28;20304;-78
2023/01/22 13:05:37;;;;;;;2.55;0.50;;;18.20;99.90;;;;;;5034417;28;20194;-78
2023/01/22 13:08:09;;;;;;;1.58;0.50;;;18.30;99.90;;;;;;5034325;28;20195;-78
2023/01/22 13:10:40;;;;;;;1.13;0.40;;;18.30;99.90;;;;;;5034096;28;20277;-78
2023/01/22 13:13:25;;;;;;;2.20;0.70;;;18.30;99.90;;;;;;5034631;28;20198;-78
2023/01/22 13:15:58;;;;;;;1.27;0.47;;;18.30;99.90;;;;;;5034347;28;20691;-78
2023/01/22 13:18:30;;;;;;;1.95;0.47;;;18.30;99.90;;;;;;5033880;28;20194;-78
2023/01/22 13:21:05;;;;;;;3.38;0.60;;;18.30;99.90;;;;;;5033297;28;20197;-77
2023/01/22 13:23:39;;;;;;;3.15;0.50;;;18.30;99.90;;;;;;5032954;28;20213;-78
2023/01/22 13:26:35;;;;;;;2.90;0.70;;;18.30;99.90;;;;;;5033477;28;20198;-77
2023/01/22 13:29:20;;;;;;;4.32;0.70;;;18.30;99.90;;;;;;5034033;28;20657;-77
2023/01/22 13:31:55;;;;;;;0.75;0.38;;;18.30;99.90;;;;;;5030366;28;20198;-77
2023/01/22 13:34:27;;;;;;;3.42;0.50;;;18.30;99.90;;;;;;5025899;28;20200;-77